sensor_id;sensor_type;location;lat;lon;timestamp;P1;P2;P0
72918;PMS7003;68407;55.694;26.994;2024-01-07T00:02:04;7.6;4.8;3.8
72918;PMS7003;68407;55.694;26.994;2024-01-07T00:07:04;8.8;6;4.6
72918;PMS7003;68407;55.694;26.994;2024-01-07T00:12:35;7.8;5.2;4
72918;PMS7003;68407;55.694;26.994;2024-01-07T00:17:00;8.4;5.8;3.6
72918;PMS7003;68407;55.694;26.994;2024-01-07T00:21:52;6.8;3.8;3
72918;PMS7003;68407;55.694;26.994;2024-01-07T00:27:06;9;6.6;4.6
72918;PMS7003;68407;55.694;26.994;2024-01-07T00:31:44;7;5.4;3.6
72918;PMS7003;68407;55.694;26.994;2024-01-07T00:37:36;7;5.8;4
72918;PMS7003;68407;55.694;26.994;2024-01-07T00:42:03;7.8;5.8;3.8
72918;PMS7003;68407;55.694;26.994;2024-01-07T00:46:52;8.8;5;3.4
72918;PMS7003;68407;55.694;26.994;2024-01-07T00:51:56;7;4.8;3.8
72918;PMS7003;68407;55.694;26.994;2024-01-07T00:56:52;6.4;4.6;3.4
72918;PMS7003;68407;55.694;26.994;2024-01-07T01:02:37;6.4;4.6;3.2
72918;PMS7003;68407;55.694;26.994;2024-01-07T01:07:01;7.8;5.6;3.2
72918;PMS7003;68407;55.694;26.994;2024-01-07T01:11:57;9;4.6;3.6
72918;PMS7003;68407;55.694;26.994;2024-01-07T01:16:55;7.2;5.2;3.8
72918;PMS7003;68407;55.694;26.994;2024-01-07T01:22:05;4.8;3.5;2.5
72918;PMS7003;68407;55.694;26.994;2024-01-07T01:27:37;5.4;4;2.6
72918;PMS7003;68407;55.694;26.994;2024-01-07T01:32:29;7.2;4.4;3.4
72918;PMS7003;68407;55.694;26.994;2024-01-07T01:37:13;6.4;5;3.2
72918;PMS7003;68407;55.694;26.994;2024-01-07T01:41:57;6.8;5.8;3.4
72918;PMS7003;68407;55.694;26.994;2024-01-07T01:47:05;6.2;4.4;3.4
72918;PMS7003;68407;55.694;26.994;2024-01-07T01:52:35;8;4.8;3.4
72918;PMS7003;68407;55.694;26.994;2024-01-07T01:56:51;9;5.6;3.6
72918;PMS7003;68407;55.694;26.994;2024-01-07T02:02:05;5.6;4.2;2.8
72918;PMS7003;68407;55.694;26.994;2024-01-07T02:07:03;6.4;4.8;3.4
72918;PMS7003;68407;55.694;26.994;2024-01-07T02:12:37;6.2;4.6;3.2
72918;PMS7003;68407;55.694;26.994;2024-01-07T02:17:35;6.8;4.8;3.6
72918;PMS7003;68407;55.694;26.994;2024-01-07T02:22:23;7.3;5.5;3.5
72918;PMS7003;68407;55.694;26.994;2024-01-07T02:26:45;6.6;3.6;3
72918;PMS7003;68407;55.694;26.994;2024-01-07T02:31:45;6.6;4.6;2.8
72918;PMS7003;68407;55.694;26.994;2024-01-07T02:37:05;7;4;2.6
72918;PMS7003;68407;55.694;26.994;2024-01-07T02:42:35;6;4.4;2.8
72918;PMS7003;68407;55.694;26.994;2024-01-07T02:46:53;6.2;4.6;3.2
72918;PMS7003;68407;55.694;26.994;2024-01-07T02:51:51;8.2;5.6;3.4
72918;PMS7003;68407;55.694;26.994;2024-01-07T02:56:53;5.6;4;2.6
72918;PMS7003;68407;55.694;26.994;2024-01-07T03:02:03;7.4;4;3
72918;PMS7003;68407;55.694;26.994;2024-01-07T03:07:37;7.8;4.8;3.4
72918;PMS7003;68407;55.694;26.994;2024-01-07T03:12:37;6.2;5.8;3.8
72918;PMS7003;68407;55.694;26.994;2024-01-07T03:16:53;6.4;2.4;2.2
72918;PMS7003;68407;55.694;26.994;2024-01-07T03:21:57;5.5;2.8;2.5
72918;PMS7003;68407;55.694;26.994;2024-01-07T03:27:05;6.2;4.4;3.2
72918;PMS7003;68407;55.694;26.994;2024-01-07T03:32:37;8.6;5.4;3.6
72918;PMS7003;68407;55.694;26.994;2024-01-07T03:36:45;6.8;5.2;3
72918;PMS7003;68407;55.694;26.994;2024-01-07T03:41:54;8;4.8;3.2
72918;PMS7003;68407;55.694;26.994;2024-01-07T03:47:35;11.6;6.6;3.8
72918;PMS7003;68407;55.694;26.994;2024-01-07T03:52:05;10.6;6.4;4.4
72918;PMS7003;68407;55.694;26.994;2024-01-07T03:57:37;7.8;5;3.6
72918;PMS7003;68407;55.694;26.994;2024-01-07T04:02:23;7;5.4;4.2
72918;PMS7003;68407;55.694;26.994;2024-01-07T04:06:45;7;4.2;3.4
72918;PMS7003;68407;55.694;26.994;2024-01-07T04:11:53;7.2;5;3.8
72918;PMS7003;68407;55.694;26.994;2024-01-07T04:17:05;5.8;4;3.2
72918;PMS7003;68407;55.694;26.994;2024-01-07T04:22:35;6;4.5;3.8
72918;PMS7003;68407;55.694;26.994;2024-01-07T04:26:51;7.4;4.6;3.6
72918;PMS7003;68407;55.694;26.994;2024-01-07T04:32:05;8.8;7.2;5.2
72918;PMS7003;68407;55.694;26.994;2024-01-07T04:36:53;7.6;7.2;4.6
72918;PMS7003;68407;55.694;26.994;2024-01-07T04:41:53;9.6;6.2;3.8
72918;PMS7003;68407;55.694;26.994;2024-01-07T04:47:35;7;5.8;4.6
72918;PMS7003;68407;55.694;26.994;2024-01-07T04:52:21;7.2;5.4;4
72918;PMS7003;68407;55.694;26.994;2024-01-07T04:57:13;9;7;4.8
72918;PMS7003;68407;55.694;26.994;2024-01-07T05:01:45;8.6;6.8;4.2
72918;PMS7003;68407;55.694;26.994;2024-01-07T05:07:13;9.2;6.8;4.8
72918;PMS7003;68407;55.694;26.994;2024-01-07T05:12:13;10;7.2;4.2
72918;PMS7003;68407;55.694;26.994;2024-01-07T05:16:45;9.8;6.4;4.8
72918;PMS7003;68407;55.694;26.994;2024-01-07T05:22:05;7.4;5.4;3.4
72918;PMS7003;68407;55.694;26.994;2024-01-07T05:27:13;6.3;4.3;3.5
72918;PMS7003;68407;55.694;26.994;2024-01-07T05:31:57;8.4;5.4;3.8
72918;PMS7003;68407;55.694;26.994;2024-01-07T05:37:35;9.8;5.6;4.4
72918;PMS7003;68407;55.694;26.994;2024-01-07T05:42:21;9;6;4.2
72918;PMS7003;68407;55.694;26.994;2024-01-07T05:47:13;7.6;6;4.2
72918;PMS7003;68407;55.694;26.994;2024-01-07T05:51:55;9.4;6.2;3.4
72918;PMS7003;68407;55.694;26.994;2024-01-07T05:57:13;7.6;5.6;3.8
72918;PMS7003;68407;55.694;26.994;2024-01-07T06:02:31;6.6;5.6;3.6
72918;PMS7003;68407;55.694;26.994;2024-01-07T06:06:45;7.8;6;4.4
72918;PMS7003;68407;55.694;26.994;2024-01-07T06:12:05;6.8;5.8;4.2
72918;PMS7003;68407;55.694;26.994;2024-01-07T06:17:13;9;6.8;4.6
72918;PMS7003;68407;55.694;26.994;2024-01-07T06:21:43;8.4;5.6;3.6
72918;PMS7003;68407;55.694;26.994;2024-01-07T06:27:25;8.3;5.3;3.8
72918;PMS7003;68407;55.694;26.994;2024-01-07T06:32:13;7;5.4;3.8
72918;PMS7003;68407;55.694;26.994;2024-01-07T06:37:11;8.6;5.2;3.2
72918;PMS7003;68407;55.694;26.994;2024-01-07T06:41:51;11.6;6.2;4
72918;PMS7003;68407;55.694;26.994;2024-01-07T06:46:51;10.6;6.4;4.2
72918;PMS7003;68407;55.694;26.994;2024-01-07T06:52:33;7;5.2;4
72918;PMS7003;68407;55.694;26.994;2024-01-07T06:56:43;6.4;4.8;3.4
72918;PMS7003;68407;55.694;26.994;2024-01-07T07:01:55;7.8;6.4;4
72918;PMS7003;68407;55.694;26.994;2024-01-07T07:06:45;6.6;5.2;3.8
72918;PMS7003;68407;55.694;26.994;2024-01-07T07:11:51;6.8;5.4;3.6
72918;PMS7003;68407;55.694;26.994;2024-01-07T07:17:33;8.2;4.8;3
72918;PMS7003;68407;55.694;26.994;2024-01-07T07:22:19;8.2;6;4.6
72918;PMS7003;68407;55.694;26.994;2024-01-07T07:27:11;8;4.8;3.8
72918;PMS7003;68407;55.694;26.994;2024-01-07T07:32:33;7.6;5.2;3.8
72918;PMS7003;68407;55.694;26.994;2024-01-07T07:36:51;6.8;4.6;3.6
72918;PMS7003;68407;55.694;26.994;2024-01-07T07:42:31;7.4;4;3.4
72918;PMS7003;68407;55.694;26.994;2024-01-07T07:46:41;6.8;5.2;4.2
72918;PMS7003;68407;55.694;26.994;2024-01-07T07:52:05;6.2;5;3.8
72918;PMS7003;68407;55.694;26.994;2024-01-07T07:57:11;7.6;5.2;4
72918;PMS7003;68407;55.694;26.994;2024-01-07T08:01:51;7.2;5.4;3.6
72918;PMS7003;68407;55.694;26.994;2024-01-07T08:07:33;5.2;4;3.6
72918;PMS7003;68407;55.694;26.994;2024-01-07T08:12:11;7.6;5;3.4
72918;PMS7003;68407;55.694;26.994;2024-01-07T08:17:09;8.6;4.8;3.6
72918;PMS7003;68407;55.694;26.994;2024-01-07T08:21:49;5.4;4.4;2.4
72918;PMS7003;68407;55.694;26.994;2024-01-07T08:27:17;6.8;5.3;3.3
72918;PMS7003;68407;55.694;26.994;2024-01-07T08:32:31;6;4.6;3.2
72918;PMS7003;68407;55.694;26.994;2024-01-07T08:36:41;4.2;3.8;2.8
72918;PMS7003;68407;55.694;26.994;2024-01-07T08:41:43;7.4;5.4;4
72918;PMS7003;68407;55.694;26.994;2024-01-07T08:47:11;7.2;4.6;3.6
72918;PMS7003;68407;55.694;26.994;2024-01-07T08:52:13;6.4;4.2;2.4
72918;PMS7003;68407;55.694;26.994;2024-01-07T08:57:31;5;3.6;2.6
72918;PMS7003;68407;55.694;26.994;2024-01-07T09:02:19;11;6.4;4.4
72918;PMS7003;68407;55.694;26.994;2024-01-07T09:07:09;10.2;6.4;4.2
72918;PMS7003;68407;55.694;26.994;2024-01-07T09:12:21;7.4;4.8;3.8
72918;PMS7003;68407;55.694;26.994;2024-01-07T09:16:57;7.8;5.2;3.6
72918;PMS7003;68407;55.694;26.994;2024-01-07T09:22:19;7.6;6.6;5.2
72918;PMS7003;68407;55.694;26.994;2024-01-07T09:26:43;7.3;5.5;3.8
72918;PMS7003;68407;55.694;26.994;2024-01-07T09:32:03;8.2;6.2;4.4
72918;PMS7003;68407;55.694;26.994;2024-01-07T09:37:03;8.6;6;4.6
72918;PMS7003;68407;55.694;26.994;2024-01-07T09:42:19;8.4;5.8;4.2
72918;PMS7003;68407;55.694;26.994;2024-01-07T09:47:13;10.8;7.2;5.2
72918;PMS7003;68407;55.694;26.994;2024-01-07T09:52:13;5.8;5.2;3.6
72918;PMS7003;68407;55.694;26.994;2024-01-07T09:56:55;12;7.8;6
72918;PMS7003;68407;55.694;26.994;2024-01-07T10:02:01;8;6.4;4.4
72918;PMS7003;68407;55.694;26.994;2024-01-07T10:06:43;9.8;7;4.8
72918;PMS7003;68407;55.694;26.994;2024-01-07T10:12:31;8.6;5.8;3.4
72918;PMS7003;68407;55.694;26.994;2024-01-07T10:16:41;11.4;8;5.6
72918;PMS7003;68407;55.694;26.994;2024-01-07T10:22:23;12.6;8.8;5.6
72918;PMS7003;68407;55.694;26.994;2024-01-07T10:27:09;8.8;7;4.8
72918;PMS7003;68407;55.694;26.994;2024-01-07T10:31:51;11;8.5;6
72918;PMS7003;68407;55.694;26.994;2024-01-07T10:37:31;9.4;7;4.6
72918;PMS7003;68407;55.694;26.994;2024-01-07T10:42:17;8.6;6.2;4.6
72918;PMS7003;68407;55.694;26.994;2024-01-07T10:46:51;11.6;8.2;6.4
72918;PMS7003;68407;55.694;26.994;2024-01-07T10:51:55;7.6;6.4;4.4
72918;PMS7003;68407;55.694;26.994;2024-01-07T10:57:20;13.4;9.8;6.2
72918;PMS7003;68407;55.694;26.994;2024-01-07T11:02:09;11.4;7.6;5.6
72918;PMS7003;68407;55.694;26.994;2024-01-07T11:06:52;11.2;9.2;6
72918;PMS7003;68407;55.694;26.994;2024-01-07T11:11:55;11.4;7.6;4.8
72918;PMS7003;68407;55.694;26.994;2024-01-07T11:17:13;14.2;10.8;7
72918;PMS7003;68407;55.694;26.994;2024-01-07T11:22:21;10.8;8;6.2
72918;PMS7003;68407;55.694;26.994;2024-01-07T11:27:35;10.6;7.6;5.4
72918;PMS7003;68407;55.694;26.994;2024-01-07T11:32:13;10;7.5;5.5
72918;PMS7003;68407;55.694;26.994;2024-01-07T11:36:43;12.8;8.4;6.2
72918;PMS7003;68407;55.694;26.994;2024-01-07T11:42:01;11.8;9.2;6
72918;PMS7003;68407;55.694;26.994;2024-01-07T11:46:49;12.2;10.2;6.8
72918;PMS7003;68407;55.694;26.994;2024-01-07T11:52:35;13.4;9.8;7.4
72918;PMS7003;68407;55.694;26.994;2024-01-07T11:57:35;14.4;10.2;6.8
72918;PMS7003;68407;55.694;26.994;2024-01-07T12:01:55;12;8;5.4
72918;PMS7003;68407;55.694;26.994;2024-01-07T12:07:11;10.8;7.8;5.2
72918;PMS7003;68407;55.694;26.994;2024-01-07T12:12:21;9;7.2;5
72918;PMS7003;68407;55.694;26.994;2024-01-07T12:17:33;14.4;9.2;6
72918;PMS7003;68407;55.694;26.994;2024-01-07T12:22:33;13.8;11;6.8
72918;PMS7003;68407;55.694;26.994;2024-01-07T12:27:03;9.8;8.2;5.8
72918;PMS7003;68407;55.694;26.994;2024-01-07T12:31:51;12.5;8.3;5.5
72918;PMS7003;68407;55.694;26.994;2024-01-07T12:37:33;10.6;8.4;6
72918;PMS7003;68407;55.694;26.994;2024-01-07T12:42:21;9.6;7.4;5.4
72918;PMS7003;68407;55.694;26.994;2024-01-07T12:47:25;11.4;8.2;6.6
72918;PMS7003;68407;55.694;26.994;2024-01-07T12:52:03;8;6;4.2
72918;PMS7003;68407;55.694;26.994;2024-01-07T12:57:25;9.8;7.2;5.8
72918;PMS7003;68407;55.694;26.994;2024-01-07T13:02:31;10.6;8.2;6.2
72918;PMS7003;68407;55.694;26.994;2024-01-07T13:07:11;11.4;8.8;6.4
72918;PMS7003;68407;55.694;26.994;2024-01-07T13:11:55;10.4;6.8;4.2
72918;PMS7003;68407;55.694;26.994;2024-01-07T13:16:49;10.8;6.2;4.6
72918;PMS7003;68407;55.694;26.994;2024-01-07T13:21:49;11.8;8;5.2
72918;PMS7003;68407;55.694;26.994;2024-01-07T13:27:31;10.8;7.4;4.8
72918;PMS7003;68407;55.694;26.994;2024-01-07T13:32:19;9;7.5;5.5
72918;PMS7003;68407;55.694;26.994;2024-01-07T13:37:33;8.8;7;5
72918;PMS7003;68407;55.694;26.994;2024-01-07T13:42:13;8.8;6.8;4.4
72918;PMS7003;68407;55.694;26.994;2024-01-07T13:47:23;9;6;4.2
72918;PMS7003;68407;55.694;26.994;2024-01-07T13:52:33;9.4;6;4.6
72918;PMS7003;68407;55.694;26.994;2024-01-07T13:57:03;12.4;8;5.8
72918;PMS7003;68407;55.694;26.994;2024-01-07T14:02:03;8.4;6.8;4.8
72918;PMS7003;68407;55.694;26.994;2024-01-07T14:06:47;10.6;8.4;6
72918;PMS7003;68407;55.694;26.994;2024-01-07T14:11:43;7.6;5.4;4
72918;PMS7003;68407;55.694;26.994;2024-01-07T14:17:11;9.4;6;4
72918;PMS7003;68407;55.694;26.994;2024-01-07T14:22:19;9.8;6.2;4.8
72918;PMS7003;68407;55.694;26.994;2024-01-07T14:27:23;9.4;7.2;4.4
72918;PMS7003;68407;55.694;26.994;2024-01-07T14:31:41;10.3;4.8;3.5
72918;PMS7003;68407;55.694;26.994;2024-01-07T14:37:23;9.8;5.2;3.2
72918;PMS7003;68407;55.694;26.994;2024-01-07T14:42:33;8.4;6.8;4.6
72918;PMS7003;68407;55.694;26.994;2024-01-07T14:46:59;12.2;7;4.8
72918;PMS7003;68407;55.694;26.994;2024-01-07T14:51:41;8.4;5.8;3.4
72918;PMS7003;68407;55.694;26.994;2024-01-07T14:56:57;11.4;8.4;6
72918;PMS7003;68407;55.694;26.994;2024-01-07T15:01:53;10.8;7.2;5.8
72918;PMS7003;68407;55.694;26.994;2024-01-07T15:07:33;10.6;8.8;5.6
72918;PMS7003;68407;55.694;26.994;2024-01-07T15:12:22;13.6;10.2;7.4
72918;PMS7003;68407;55.694;26.994;2024-01-07T15:17:23;14.8;10.2;7
72918;PMS7003;68407;55.694;26.994;2024-01-07T15:21:51;11.8;7.2;5.8
72918;PMS7003;68407;55.694;26.994;2024-01-07T15:27:23;13.2;9.2;5.2
72918;PMS7003;68407;55.694;26.994;2024-01-07T15:32:33;11.2;8.4;5.4
72918;PMS7003;68407;55.694;26.994;2024-01-07T15:37:09;14.8;10.3;6.3
72918;PMS7003;68407;55.694;26.994;2024-01-07T15:41:43;11;7.4;5.2
72918;PMS7003;68407;55.694;26.994;2024-01-07T15:46:41;10.6;6;4.2
72918;PMS7003;68407;55.694;26.994;2024-01-07T15:52:33;7.8;6.8;4
72918;PMS7003;68407;55.694;26.994;2024-01-07T15:57:33;9.6;7.4;4.6
72918;PMS7003;68407;55.694;26.994;2024-01-07T16:02:19;11;7.8;6
72918;PMS7003;68407;55.694;26.994;2024-01-07T16:07:25;10.8;6.6;5
72918;PMS7003;68407;55.694;26.994;2024-01-07T16:12:05;12.2;9;6.2
72918;PMS7003;68407;55.694;26.994;2024-01-07T16:16:45;12.4;9;6
72918;PMS7003;68407;55.694;26.994;2024-01-07T16:22:35;11.4;8.2;6.2
72918;PMS7003;68407;55.694;26.994;2024-01-07T16:27:09;15.8;8.8;6.4
72918;PMS7003;68407;55.694;26.994;2024-01-07T16:31:41;13.6;8.2;5.8
72918;PMS7003;68407;55.694;26.994;2024-01-07T16:36:49;11.8;7.3;5.3
72918;PMS7003;68407;55.694;26.994;2024-01-07T16:41:41;12;9.2;6.6
72918;PMS7003;68407;55.694;26.994;2024-01-07T16:47:33;12.4;9.4;5.8
72918;PMS7003;68407;55.694;26.994;2024-01-07T16:52:19;11;8;5.6
72918;PMS7003;68407;55.694;26.994;2024-01-07T16:57:17;9.8;7;5.2
72918;PMS7003;68407;55.694;26.994;2024-01-07T17:02:03;10.6;7.6;5.8
72918;PMS7003;68407;55.694;26.994;2024-01-07T17:07:21;7.4;6;4.4
72918;PMS7003;68407;55.694;26.994;2024-01-07T17:12:35;9.4;6.6;4.8
72918;PMS7003;68407;55.694;26.994;2024-01-07T17:16:41;8.6;6.8;5.6
72918;PMS7003;68407;55.694;26.994;2024-01-07T17:21:43;12.4;8.4;6
72918;PMS7003;68407;55.694;26.994;2024-01-07T17:27:15;7.4;6.2;4.6
72918;PMS7003;68407;55.694;26.994;2024-01-07T17:32:21;9.6;7.6;5.2
72918;PMS7003;68407;55.694;26.994;2024-01-07T17:37:35;7;5.8;4.3
72918;PMS7003;68407;55.694;26.994;2024-01-07T17:42:21;9;6.8;4.4
72918;PMS7003;68407;55.694;26.994;2024-01-07T17:47:19;10.6;6.6;5
72918;PMS7003;68407;55.694;26.994;2024-01-07T17:51:43;8.6;5.6;4
72918;PMS7003;68407;55.694;26.994;2024-01-07T17:57:11;11.2;7.6;4.4
72918;PMS7003;68407;55.694;26.994;2024-01-07T18:02:33;8.2;7;4.8
72918;PMS7003;68407;55.694;26.994;2024-01-07T18:06:59;6.4;5.8;4.8
72918;PMS7003;68407;55.694;26.994;2024-01-07T18:12:21;7.8;6.2;4
72918;PMS7003;68407;55.694;26.994;2024-01-07T18:16:43;8.2;6.4;5.2
72918;PMS7003;68407;55.694;26.994;2024-01-07T18:22:23;9.6;7;4.6
72918;PMS7003;68407;55.694;26.994;2024-01-07T18:27:35;7;5.6;4.2
72918;PMS7003;68407;55.694;26.994;2024-01-07T18:31:45;6.6;5.4;3.6
72918;PMS7003;68407;55.694;26.994;2024-01-07T18:37:07;7.8;4.5;3
72918;PMS7003;68407;55.694;26.994;2024-01-07T18:42:03;8.6;6;3
72918;PMS7003;68407;55.694;26.994;2024-01-07T18:47:23;8.4;5.2;4.2
72918;PMS7003;68407;55.694;26.994;2024-01-07T18:52:37;7.6;4.8;3.4
72918;PMS7003;68407;55.694;26.994;2024-01-07T18:57:21;9.2;6.4;4.4
72918;PMS7003;68407;55.694;26.994;2024-01-07T19:01:47;7.2;3.6;2.8
72918;PMS7003;68407;55.694;26.994;2024-01-07T19:06:43;5.8;3.6;2.6
72918;PMS7003;68407;55.694;26.994;2024-01-07T19:12:21;6.2;3.8;2.2
72918;PMS7003;68407;55.694;26.994;2024-01-07T19:17:35;7.2;4.2;3.4
72918;PMS7003;68407;55.694;26.994;2024-01-07T19:21:57;6.4;5;3.8
72918;PMS7003;68407;55.694;26.994;2024-01-07T19:27:23;8.2;4.4;3.4
72918;PMS7003;68407;55.694;26.994;2024-01-07T19:32:11;5.6;4;3.4
72918;PMS7003;68407;55.694;26.994;2024-01-07T19:36:41;7;5;3.3
72918;PMS7003;68407;55.694;26.994;2024-01-07T19:42:31;7.4;6.6;4.8
72918;PMS7003;68407;55.694;26.994;2024-01-07T19:47:13;8.8;5.4;3.4
72918;PMS7003;68407;55.694;26.994;2024-01-07T19:51:43;7.4;3.6;2.8
72918;PMS7003;68407;55.694;26.994;2024-01-07T19:56:45;6.2;4.4;3.2
72918;PMS7003;68407;55.694;26.994;2024-01-07T20:02:21;6.4;4;3
72918;PMS7003;68407;55.694;26.994;2024-01-07T20:07:37;6.2;4.4;3
72918;PMS7003;68407;55.694;26.994;2024-01-07T20:12:21;5.2;4.2;3.4
72918;PMS7003;68407;55.694;26.994;2024-01-07T20:16:47;5.4;3.2;2.6
72918;PMS7003;68407;55.694;26.994;2024-01-07T20:22:03;6.4;4.6;2.4
72918;PMS7003;68407;55.694;26.994;2024-01-07T20:27:09;5.8;4;3.2
72918;PMS7003;68407;55.694;26.994;2024-01-07T20:32:35;5.4;3.4;2.6
72918;PMS7003;68407;55.694;26.994;2024-01-07T20:36:51;7.6;5.6;3.2
72918;PMS7003;68407;55.694;26.994;2024-01-07T20:41:53;5.3;2.8;2
72918;PMS7003;68407;55.694;26.994;2024-01-07T20:46:43;7;4.4;3
72918;PMS7003;68407;55.694;26.994;2024-01-07T20:52:21;9.2;5.8;4.4
72918;PMS7003;68407;55.694;26.994;2024-01-07T20:57:13;8.6;5.2;3.6
72918;PMS7003;68407;55.694;26.994;2024-01-07T21:02:21;8;6.2;4
72918;PMS7003;68407;55.694;26.994;2024-01-07T21:07:25;7.8;5.4;3.6
72918;PMS7003;68407;55.694;26.994;2024-01-07T21:12:31;7.4;5.8;4
72918;PMS7003;68407;55.694;26.994;2024-01-07T21:17:11;5;3.2;2.4
72918;PMS7003;68407;55.694;26.994;2024-01-07T21:22:23;7;4.6;3.8
72918;PMS7003;68407;55.694;26.994;2024-01-07T21:26:59;6;4.6;3
72918;PMS7003;68407;55.694;26.994;2024-01-07T21:31:43;4;3.8;2.6
72918;PMS7003;68407;55.694;26.994;2024-01-07T21:37:01;7;4.2;3.2
72918;PMS7003;68407;55.694;26.994;2024-01-07T21:41:43;5.8;3.8;2.5
72918;PMS7003;68407;55.694;26.994;2024-01-07T21:47:35;8.2;3.8;2.8
72918;PMS7003;68407;55.694;26.994;2024-01-07T21:52:35;5.6;5;2.8
72918;PMS7003;68407;55.694;26.994;2024-01-07T21:57:25;6.2;4.8;3
72918;PMS7003;68407;55.694;26.994;2024-01-07T22:02:35;9;5.4;4.2
72918;PMS7003;68407;55.694;26.994;2024-01-07T22:06:45;7.4;5.4;4.4
72918;PMS7003;68407;55.694;26.994;2024-01-07T22:12:07;9;5.8;3.8
72918;PMS7003;68407;55.694;26.994;2024-01-07T22:16:45;7.2;5.4;2.8
72918;PMS7003;68407;55.694;26.994;2024-01-07T22:22:11;5.2;3.4;1.8
72918;PMS7003;68407;55.694;26.994;2024-01-07T22:26:45;5.8;4.2;2.8
72918;PMS7003;68407;55.694;26.994;2024-01-07T22:32:15;6.2;4.6;2.6
72918;PMS7003;68407;55.694;26.994;2024-01-07T22:37:33;5.6;4.6;3.6
72918;PMS7003;68407;55.694;26.994;2024-01-07T22:42:35;5.8;3.8;2.8
72918;PMS7003;68407;55.694;26.994;2024-01-07T22:47:21;8.2;5;2.8
72918;PMS7003;68407;55.694;26.994;2024-01-07T22:52:31;5.2;3.2;1.6
72918;PMS7003;68407;55.694;26.994;2024-01-07T22:57:19;6.2;4.2;3.2
72918;PMS7003;68407;55.694;26.994;2024-01-07T23:02:25;7;4.6;3.4
72918;PMS7003;68407;55.694;26.994;2024-01-07T23:06:45;6.2;3.6;1.8
72918;PMS7003;68407;55.694;26.994;2024-01-07T23:12:11;4;3.4;3.2
72918;PMS7003;68407;55.694;26.994;2024-01-07T23:16:45;5.8;3.8;2.2
72918;PMS7003;68407;55.694;26.994;2024-01-07T23:21:45;4;3;1.8
72918;PMS7003;68407;55.694;26.994;2024-01-07T23:27:35;5.6;2;1.4
72918;PMS7003;68407;55.694;26.994;2024-01-07T23:32:31;3.6;2.8;1.4
72918;PMS7003;68407;55.694;26.994;2024-01-07T23:37:23;5;4;2.8
72918;PMS7003;68407;55.694;26.994;2024-01-07T23:42:33;7.3;3;2.8
72918;PMS7003;68407;55.694;26.994;2024-01-07T23:46:51;5.4;4;2.6
72918;PMS7003;68407;55.694;26.994;2024-01-07T23:52:05;3.8;2.6;2.4
72918;PMS7003;68407;55.694;26.994;2024-01-07T23:57:01;5.6;2.8;2.2
